Portada
METAR-TAF:

METAR-TAF

Aeroports :

Nouméa La Tontouta, Nova Caledònia

latitud: 22-01S, longitud: 166-13E, altitud: 16 m

Observació

L'informe es va fer fa 26 minuts, a les 07:00 UTC
Vent 9 kt del Sud-Est
Temperatura 21°C
Humitat 60%
Pressió 1018 hPa
Visibilitat 10 km o més
Escasses núvols a una alçada de 6600 ft

METAR: NWWW 190700Z AUTO 13009KT 9999 FEW066 21/13 Q1018 NOSIG

Hora: 18:26 (07:26 UTC)

Pronòstic

L'informe es va fer fa 2 hores i 26 minuts, a les 05:00 UTC
Pronòstic vàlid del 19 a les 06 UTC al 20 a les 06 UTC
Vent 18 kt del Sud/Sud-Est
Visibilitat 10 km o més
Núvols disperses a una alçada de 5000 ft
Evolucionant progressivament
l' 19 a les 08 UTC al 19 a les 10 UTC
Vent 2 kt amb direcció variable
Evolucionant progressivament
l' 19 a les 22 UTC al 19 a les 24 UTC
Vent 16 kt del Sud-Est

TAF: NWWW 190500Z 1906/2006 16018KT 9999 SCT050 BECMG 1908/1910 VRB02KT BECMG 1922/1924 13016KT

Observacions i pronòstics meteorològics de més de 4000 aeroports (METAR i TAF).

Les estacions disponibles són els punts grocs i vermells al mapa.

Posi el ratolí al punt desitjat per veure el nom de l'estació.

Feu clic per veure les observacions i els pronòstics meteorològics.

Per canviar el mapa: feu clic els botons verds amb una creu de color negre per apropar; al botó verd amb un guió per allunyar la imatge; o en les fletxes verdes per a mapes adjacents.


METAR-TAF: